createdAt,value
2017-12-29T00:51:35.884Z,94.70
2017-12-29T00:52:41.014Z,94.70
2017-12-29T00:53:45.918Z,94.60
2017-12-29T00:54:51.088Z,94.50
2017-12-29T00:55:56.881Z,94.50
2017-12-29T00:57:01.682Z,94.50
2017-12-29T00:58:06.777Z,94.30
2017-12-29T00:59:12.289Z,94.50
2017-12-29T01:00:17.094Z,94.50
2017-12-29T01:01:21.846Z,94.70
2017-12-29T01:02:27.324Z,94.30
2017-12-29T01:03:32.485Z,94.30
2017-12-29T01:04:37.208Z,94.40
2017-12-29T01:05:41.982Z,94.50
2017-12-29T01:06:46.782Z,94.50
2017-12-29T01:07:51.851Z,94.40
2017-12-29T01:08:56.796Z,94.30
2017-12-29T01:10:01.824Z,94.10
2017-12-29T01:11:06.638Z,94.00
2017-12-29T01:12:11.504Z,93.90
2017-12-29T01:13:16.257Z,93.80
2017-12-29T01:14:21.028Z,93.90
2017-12-29T01:15:25.804Z,94.00
2017-12-29T01:16:30.878Z,94.00
2017-12-29T01:17:35.698Z,93.90
2017-12-29T01:18:40.766Z,93.90
2017-12-29T01:19:45.754Z,94.00
2017-12-29T01:20:50.735Z,94.00
2017-12-29T01:21:56.399Z,94.00
2017-12-29T01:23:01.508Z,94.00
2017-12-29T01:24:08.088Z,93.90
2017-12-29T01:25:12.914Z,93.90
2017-12-29T01:26:17.654Z,93.80
2017-12-29T01:27:22.472Z,93.70
2017-12-29T01:28:27.262Z,93.60
2017-12-29T01:29:32.462Z,93.50
2017-12-29T01:30:38.187Z,93.60
2017-12-29T01:31:43.339Z,93.60
2017-12-29T01:32:49.714Z,93.50
2017-12-29T01:33:54.486Z,93.50
2017-12-29T01:34:59.295Z,93.30
2017-12-29T01:36:04.493Z,93.20
2017-12-29T01:37:09.569Z,92.90
2017-12-29T01:38:15.148Z,93.20
2017-12-29T01:39:19.976Z,93.20
2017-12-29T01:40:24.795Z,93.00
2017-12-29T01:41:29.595Z,93.00
2017-12-29T01:42:34.645Z,92.90
2017-12-29T01:43:39.394Z,93.00
2017-12-29T01:44:44.136Z,92.90
2017-12-29T01:45:49.707Z,93.20
2017-12-29T01:46:54.511Z,93.20
2017-12-29T01:47:59.978Z,93.10
2017-12-29T01:49:04.986Z,93.10
2017-12-29T01:50:09.756Z,93.00
2017-12-29T01:51:15.362Z,93.10
2017-12-29T01:52:20.108Z,93.10
2017-12-29T01:53:25.805Z,93.00
2017-12-29T01:54:30.747Z,92.90
2017-12-29T01:55:36.023Z,92.80
2017-12-29T01:56:43.171Z,92.60
2017-12-29T01:57:48.992Z,92.70
2017-12-29T01:58:54.042Z,92.70
2017-12-29T01:59:58.863Z,92.60
2017-12-29T02:01:05.096Z,92.60
2017-12-29T02:02:10.139Z,92.50
2017-12-29T02:03:15.774Z,92.50
2017-12-29T02:04:21.346Z,92.60
2017-12-29T02:05:26.099Z,92.60
2017-12-29T02:06:30.867Z,92.60
2017-12-29T02:07:36.754Z,92.40
2017-12-29T02:08:41.912Z,92.40
2017-12-29T02:09:47.811Z,92.50
2017-12-29T02:10:52.739Z,92.40
2017-12-29T02:11:57.525Z,92.60
2017-12-29T02:13:02.350Z,92.70
2017-12-29T02:14:07.488Z,92.70
2017-12-29T02:15:12.800Z,92.70
2017-12-29T02:16:17.751Z,92.80
2017-12-29T02:17:22.962Z,92.70
2017-12-29T02:18:28.241Z,92.70
2017-12-29T02:19:33.267Z,92.60
2017-12-29T02:20:38.603Z,92.50
2017-12-29T02:21:45.847Z,92.40
2017-12-29T02:22:50.580Z,92.40
2017-12-29T02:23:55.849Z,92.30
2017-12-29T02:25:01.697Z,92.20
2017-12-29T02:26:07.482Z,92.20
2017-12-29T02:27:12.743Z,92.10
2017-12-29T02:28:18.880Z,92.10
2017-12-29T02:29:24.481Z,92.10
2017-12-29T02:30:30.499Z,92.10
2017-12-29T02:31:36.452Z,91.90
2017-12-29T02:32:41.675Z,91.90
2017-12-29T02:33:47.378Z,91.70
2017-12-29T02:34:53.006Z,91.70
2017-12-29T02:35:58.653Z,91.60
2017-12-29T02:37:03.513Z,91.60
2017-12-29T02:38:08.594Z,91.60
2017-12-29T02:39:13.778Z,91.60
2017-12-29T02:40:18.757Z,91.70
2017-12-29T02:41:24.253Z,91.70
2017-12-29T02:42:29.425Z,91.70
2017-12-29T02:43:34.330Z,91.70
2017-12-29T02:44:39.470Z,91.70
2017-12-29T02:45:44.232Z,91.70
2017-12-29T02:46:48.991Z,91.60
2017-12-29T02:47:54.034Z,91.80
2017-12-29T02:48:58.746Z,91.40
2017-12-29T02:50:03.851Z,91.80
2017-12-29T02:51:09.002Z,91.80
2017-12-29T02:52:13.719Z,91.80
2017-12-29T02:53:18.650Z,91.70
2017-12-29T02:54:24.454Z,91.80
2017-12-29T02:55:29.210Z,91.70
2017-12-29T02:56:34.816Z,92.00
2017-12-29T02:57:39.511Z,92.00
2017-12-29T02:58:45.480Z,92.00
2017-12-29T02:59:50.493Z,92.00
2017-12-29T03:00:55.651Z,92.10
2017-12-29T03:02:00.537Z,92.10
2017-12-29T03:03:05.692Z,92.10
2017-12-29T03:04:10.528Z,92.20
2017-12-29T03:05:16.043Z,92.20
2017-12-29T03:06:20.815Z,92.20
2017-12-29T03:07:26.006Z,92.00
2017-12-29T03:08:31.833Z,92.20
2017-12-29T03:09:37.039Z,92.20
2017-12-29T03:10:42.491Z,92.20
2017-12-29T03:11:47.620Z,92.10
2017-12-29T03:12:53.133Z,92.30
2017-12-29T03:13:58.114Z,92.30
2017-12-29T03:15:03.180Z,92.20
2017-12-29T03:16:07.913Z,92.60
2017-12-29T03:17:12.696Z,92.30
2017-12-29T03:18:17.400Z,92.30
2017-12-29T03:19:22.145Z,92.30
2017-12-29T03:20:27.146Z,92.40
2017-12-29T03:21:31.862Z,92.50
2017-12-29T03:22:36.561Z,92.40
2017-12-29T03:23:42.201Z,92.50
2017-12-29T03:24:47.046Z,92.50
2017-12-29T03:25:52.058Z,92.60
2017-12-29T03:26:56.797Z,92.70
2017-12-29T03:28:01.481Z,92.80
2017-12-29T03:29:06.236Z,92.80
2017-12-29T03:30:11.109Z,92.90
2017-12-29T03:31:15.820Z,92.90
2017-12-29T03:32:21.587Z,93.00
2017-12-29T03:33:26.396Z,93.30
2017-12-29T03:34:31.292Z,93.00
2017-12-29T03:35:36.144Z,93.00
2017-12-29T03:36:40.993Z,93.00
2017-12-29T03:37:45.713Z,92.90
2017-12-29T03:38:51.230Z,92.70
2017-12-29T03:39:55.925Z,92.80
2017-12-29T03:41:00.633Z,92.80
2017-12-29T03:42:07.033Z,92.80
2017-12-29T03:43:12.063Z,92.80
2017-12-29T03:44:16.798Z,92.80
2017-12-29T03:45:21.764Z,92.80
2017-12-29T03:46:26.455Z,92.90
2017-12-29T03:47:31.245Z,92.90
2017-12-29T03:48:36.130Z,93.00
2017-12-29T03:49:40.871Z,93.00
2017-12-29T03:50:45.605Z,93.10
2017-12-29T03:51:50.674Z,93.20
2017-12-29T03:52:55.388Z,93.30
2017-12-29T03:54:00.125Z,93.20
2017-12-29T03:55:05.779Z,93.20
2017-12-29T03:56:10.488Z,93.20
2017-12-29T03:57:15.206Z,93.20
2017-12-29T03:58:20.238Z,93.20
2017-12-29T03:59:25.329Z,93.20
2017-12-29T04:00:30.185Z,93.30
2017-12-29T04:01:34.950Z,93.20
2017-12-29T04:02:39.758Z,93.30
2017-12-29T04:03:44.449Z,93.20
2017-12-29T04:04:49.477Z,93.20
2017-12-29T04:05:54.202Z,93.40
2017-12-29T04:06:58.920Z,93.40
2017-12-29T04:08:03.585Z,93.40
2017-12-29T04:09:08.287Z,93.50
2017-12-29T04:10:13.018Z,93.40
2017-12-29T04:11:17.998Z,93.30
2017-12-29T04:12:22.676Z,93.40
2017-12-29T04:13:27.404Z,93.40
2017-12-29T04:14:32.142Z,93.60
2017-12-29T04:15:36.834Z,93.60
2017-12-29T04:16:41.509Z,93.70
2017-12-29T04:17:46.529Z,93.90
2017-12-29T04:18:51.996Z,93.70
2017-12-29T04:19:56.709Z,93.80
2017-12-29T04:21:01.405Z,93.80
2017-12-29T04:22:06.132Z,93.90
2017-12-29T04:23:10.806Z,94.00
2017-12-29T04:24:15.809Z,94.00
2017-12-29T04:25:20.505Z,94.10
2017-12-29T04:26:25.163Z,94.00
2017-12-29T04:27:29.826Z,93.90
2017-12-29T04:28:34.546Z,93.90
2017-12-29T04:29:39.258Z,93.90
2017-12-29T04:30:44.231Z,94.00
2017-12-29T04:31:48.994Z,94.00
2017-12-29T04:32:53.698Z,93.90
2017-12-29T04:33:58.493Z,93.90
2017-12-29T04:35:03.975Z,94.00
2017-12-29T04:36:08.658Z,94.00
2017-12-29T04:37:14.410Z,94.10
2017-12-29T04:38:19.097Z,94.10
2017-12-29T04:39:24.629Z,94.10
2017-12-29T04:40:29.331Z,94.10
2017-12-29T04:41:34.022Z,94.10
2017-12-29T04:42:38.731Z,94.10
2017-12-29T04:43:43.753Z,94.00
2017-12-29T04:46:17.750Z,94.00
2017-12-29T04:47:22.473Z,94.00
2017-12-29T04:48:27.152Z,94.10
2017-12-29T04:49:32.858Z,94.20
2017-12-29T04:50:37.838Z,94.20
2017-12-29T04:51:42.609Z,94.30
2017-12-29T04:52:47.446Z,94.40
2017-12-29T04:53:53.082Z,94.50
2017-12-29T04:54:57.741Z,94.50
2017-12-29T04:56:02.450Z,94.40
2017-12-29T04:57:07.446Z,94.40
2017-12-29T04:58:12.909Z,94.70
2017-12-29T04:59:17.590Z,94.60
2017-12-29T05:00:22.293Z,94.60
2017-12-29T05:01:27.060Z,94.50
2017-12-29T05:02:31.773Z,94.50
2017-12-29T05:03:36.806Z,94.50
2017-12-29T05:04:41.479Z,94.60
2017-12-29T05:05:46.938Z,94.80
2017-12-29T05:06:51.638Z,94.80
2017-12-29T05:07:57.070Z,94.80
2017-12-29T05:09:02.535Z,94.80
2017-12-29T05:10:07.729Z,94.80
2017-12-29T05:11:13.170Z,94.60
2017-12-29T05:12:18.620Z,94.50
2017-12-29T05:13:23.349Z,94.50
2017-12-29T05:14:28.519Z,94.60
2017-12-29T05:15:33.646Z,94.60
2017-12-29T05:16:39.095Z,94.90
2017-12-29T05:17:44.202Z,94.70
2017-12-29T05:18:49.821Z,94.60
2017-12-29T05:19:54.525Z,94.60
2017-12-29T05:20:59.216Z,94.60
2017-12-29T05:22:04.050Z,94.50
2017-12-29T05:23:10.323Z,94.60
2017-12-29T05:24:15.075Z,94.60
2017-12-29T05:25:21.220Z,94.50
2017-12-29T05:26:26.730Z,94.70
2017-12-29T05:27:32.261Z,94.60
2017-12-29T05:28:37.226Z,94.60
2017-12-29T05:29:43.257Z,94.50
2017-12-29T05:30:48.047Z,94.50
2017-12-29T05:31:53.286Z,94.50
2017-12-29T05:32:57.957Z,94.50
2017-12-29T05:34:02.659Z,94.40
2017-12-29T05:35:08.259Z,94.20
2017-12-29T05:36:13.642Z,94.20
2017-12-29T05:37:18.338Z,94.20
2017-12-29T05:38:23.801Z,94.10
2017-12-29T05:39:28.490Z,94.10
2017-12-29T05:40:33.911Z,94.00
2017-12-29T05:41:40.310Z,94.10
2017-12-29T05:42:45.386Z,94.00
2017-12-29T05:43:50.105Z,94.00
2017-12-29T05:44:54.840Z,94.10
2017-12-29T05:46:00.341Z,94.10
2017-12-29T05:47:05.030Z,94.10
2017-12-29T05:48:09.709Z,94.10
2017-12-29T05:49:15.536Z,94.20
2017-12-29T05:50:21.002Z,94.20
2017-12-29T05:51:25.676Z,94.20
2017-12-29T05:52:30.391Z,94.30
2017-12-29T05:53:35.105Z,94.30
2017-12-29T05:54:39.790Z,94.20
2017-12-29T05:55:44.597Z,94.30
2017-12-29T05:56:49.302Z,94.30
2017-12-29T05:57:54.069Z,94.30
2017-12-29T05:58:58.768Z,94.30
2017-12-29T06:00:03.481Z,94.30
2017-12-29T06:01:08.215Z,94.30
2017-12-29T06:02:12.913Z,94.20
2017-12-29T06:03:18.426Z,94.30
2017-12-29T06:04:23.675Z,94.30
2017-12-29T06:05:30.161Z,94.40
2017-12-29T06:06:35.245Z,94.30
2017-12-29T06:07:40.945Z,94.30
2017-12-29T06:08:45.650Z,94.40
2017-12-29T06:09:50.313Z,94.50
2017-12-29T06:10:55.044Z,94.50
2017-12-29T06:11:59.748Z,94.40
2017-12-29T06:13:04.978Z,94.30
2017-12-29T06:14:09.657Z,94.30
2017-12-29T06:15:14.361Z,94.30
2017-12-29T06:16:19.050Z,94.30
2017-12-29T06:17:23.822Z,94.30
2017-12-29T06:18:29.393Z,94.20
2017-12-29T06:19:34.726Z,94.20
2017-12-29T06:20:39.520Z,94.20
2017-12-29T06:21:44.365Z,94.30
2017-12-29T06:22:49.115Z,94.30
2017-12-29T06:23:53.911Z,94.30
2017-12-29T06:24:58.704Z,94.30
2017-12-29T06:26:03.902Z,94.30
2017-12-29T06:27:09.424Z,94.10
2017-12-29T06:28:14.170Z,94.10
2017-12-29T06:29:20.257Z,94.20
2017-12-29T06:30:24.982Z,94.20
2017-12-29T06:31:29.668Z,94.10
2017-12-29T06:32:35.732Z,94.10
2017-12-29T06:33:40.572Z,94.10
2017-12-29T06:34:45.358Z,94.10
2017-12-29T06:35:50.092Z,94.20
2017-12-29T06:36:54.863Z,94.20
2017-12-29T06:37:59.643Z,94.20
2017-12-29T06:39:05.248Z,94.30
2017-12-29T06:40:09.986Z,94.40
2017-12-29T06:41:14.653Z,94.40
2017-12-29T06:42:20.093Z,94.30
2017-12-29T06:43:25.587Z,94.30
2017-12-29T06:44:30.372Z,94.40
2017-12-29T06:45:35.144Z,94.40
2017-12-29T06:46:40.737Z,94.30
2017-12-29T06:47:45.478Z,94.60
2017-12-29T06:48:50.220Z,94.40
2017-12-29T06:49:55.054Z,94.40
2017-12-29T06:50:59.750Z,94.40
2017-12-29T06:52:04.860Z,94.40
2017-12-29T06:53:09.610Z,94.60
2017-12-29T06:54:14.378Z,94.60
2017-12-29T06:55:19.129Z,94.60
2017-12-29T06:56:23.948Z,94.60
2017-12-29T06:57:29.096Z,94.60
2017-12-29T06:58:34.226Z,94.50
2017-12-29T06:59:39.376Z,94.50
2017-12-29T07:00:44.571Z,94.50
2017-12-29T07:01:50.034Z,94.50
2017-12-29T07:02:54.730Z,94.50
2017-12-29T07:03:59.439Z,94.50
2017-12-29T07:05:05.907Z,94.40
2017-12-29T07:06:10.640Z,94.40
2017-12-29T07:07:15.431Z,94.30
2017-12-29T07:08:20.275Z,94.20
2017-12-29T07:09:25.525Z,94.30
2017-12-29T07:10:30.357Z,94.10
2017-12-29T07:11:36.626Z,94.20
2017-12-29T07:12:41.410Z,94.20
2017-12-29T07:13:46.233Z,94.30
2017-12-29T07:14:51.444Z,94.40
2017-12-29T07:15:56.246Z,94.50
2017-12-29T07:17:01.022Z,94.50
2017-12-29T07:18:06.107Z,94.50
2017-12-29T07:19:10.841Z,94.50
2017-12-29T07:20:15.586Z,94.50
2017-12-29T07:21:20.338Z,94.50
2017-12-29T07:22:26.407Z,94.70
2017-12-29T07:23:31.103Z,94.70
2017-12-29T07:24:36.179Z,94.60
2017-12-29T07:25:41.240Z,94.60
2017-12-29T07:26:47.160Z,94.70
2017-12-29T07:27:52.203Z,94.70
2017-12-29T07:28:57.937Z,94.70
2017-12-29T07:30:04.791Z,94.80
2017-12-29T07:31:10.403Z,94.80
2017-12-29T07:32:15.484Z,94.90
2017-12-29T07:33:20.483Z,94.80
2017-12-29T07:34:26.295Z,94.80
2017-12-29T07:35:31.334Z,94.90
2017-12-29T07:36:36.572Z,95.20
2017-12-29T07:37:41.763Z,95.10
2017-12-29T07:38:47.045Z,95.10
2017-12-29T07:39:52.274Z,95.10
2017-12-29T07:40:58.250Z,94.90
2017-12-29T07:42:03.379Z,94.90
2017-12-29T07:43:08.154Z,94.90
2017-12-29T07:44:13.417Z,94.90
2017-12-29T07:45:18.347Z,94.70
2017-12-29T07:46:23.290Z,94.50
2017-12-29T07:47:28.272Z,94.40
2017-12-29T07:48:33.849Z,94.10
2017-12-29T07:49:38.856Z,94.10
2017-12-29T07:50:44.176Z,94.20
2017-12-29T07:51:48.960Z,94.20
2017-12-29T07:52:53.893Z,94.10
2017-12-29T07:53:59.437Z,94.00
2017-12-29T07:55:04.800Z,94.10
2017-12-29T07:56:09.614Z,94.10
2017-12-29T07:57:14.989Z,94.10
2017-12-29T07:58:19.975Z,94.00
2017-12-29T07:59:24.927Z,94.00
2017-12-29T08:00:29.821Z,94.00
2017-12-29T08:01:34.917Z,93.90
2017-12-29T08:02:40.533Z,93.70
2017-12-29T08:03:45.933Z,93.60
2017-12-29T08:04:50.792Z,93.60
2017-12-29T08:05:56.485Z,93.60
2017-12-29T08:07:01.361Z,93.60
2017-12-29T08:08:06.921Z,93.50
2017-12-29T08:09:11.770Z,93.50
2017-12-29T08:10:17.143Z,93.40
2017-12-29T08:11:22.766Z,93.40
2017-12-29T08:12:28.451Z,93.50
2017-12-29T08:13:33.223Z,93.50
2017-12-29T08:14:37.965Z,93.50
2017-12-29T08:15:43.442Z,93.50
2017-12-29T08:16:48.766Z,93.50
2017-12-29T08:17:53.691Z,93.40
2017-12-29T08:18:58.581Z,93.40
2017-12-29T08:20:03.490Z,93.40
2017-12-29T08:21:09.080Z,93.40
2017-12-29T08:22:13.958Z,93.40
2017-12-29T08:23:19.291Z,93.40
2017-12-29T08:24:24.046Z,93.40
2017-12-29T08:25:28.766Z,93.30
2017-12-29T08:26:33.537Z,93.40
2017-12-29T08:27:39.107Z,92.90
2017-12-29T08:28:43.942Z,92.90
2017-12-29T08:29:49.342Z,92.70
2017-12-29T08:30:54.501Z,92.60
2017-12-29T08:31:59.316Z,92.50
2017-12-29T08:33:04.050Z,92.40
2017-12-29T08:34:08.784Z,92.40
2017-12-29T08:35:13.533Z,92.30
2017-12-29T08:36:18.605Z,92.20
2017-12-29T08:37:23.292Z,92.20
2017-12-29T08:38:27.977Z,92.10
2017-12-29T08:39:33.411Z,92.10
2017-12-29T08:40:38.889Z,92.20
2017-12-29T08:41:43.601Z,92.30
2017-12-29T08:42:48.801Z,92.30
2017-12-29T08:43:53.498Z,92.20
2017-12-29T08:44:59.044Z,91.90
2017-12-29T08:46:03.747Z,91.90
2017-12-29T08:47:09.282Z,92.00
2017-12-29T08:48:14.754Z,92.00
2017-12-29T08:49:19.979Z,92.00
2017-12-29T08:50:24.688Z,92.00
2017-12-29T08:51:29.547Z,91.50
2017-12-29T08:52:34.246Z,91.50
2017-12-29T08:53:39.055Z,91.40
2017-12-29T08:54:43.769Z,91.10
2017-12-29T08:55:48.892Z,90.80
2017-12-29T08:56:53.604Z,90.60
2017-12-29T08:57:58.314Z,90.60
2017-12-29T08:59:03.020Z,90.40
2017-12-29T09:00:07.874Z,90.40
2017-12-29T09:01:12.552Z,90.30
2017-12-29T09:02:18.392Z,90.20
2017-12-29T09:03:23.093Z,90.20
2017-12-29T09:04:27.827Z,90.00
2017-12-29T09:05:33.346Z,89.40
2017-12-29T09:06:38.022Z,89.40
2017-12-29T09:07:42.771Z,89.10
2017-12-29T09:08:47.819Z,88.90
2017-12-29T09:09:53.296Z,88.70
2017-12-29T09:10:58.425Z,88.70
2017-12-29T09:12:03.171Z,88.30
2017-12-29T09:13:08.767Z,88.20
2017-12-29T09:14:13.627Z,88.20
2017-12-29T09:15:18.754Z,88.50
2017-12-29T09:16:23.518Z,87.90
2017-12-29T09:17:28.259Z,87.90
2017-12-29T09:18:32.976Z,87.90
2017-12-29T09:19:37.653Z,88.30
2017-12-29T09:20:43.224Z,87.60
2017-12-29T09:21:48.345Z,87.60
2017-12-29T09:22:53.233Z,88.10
2017-12-29T09:23:58.732Z,88.00
2017-12-29T09:25:03.514Z,87.50
2017-12-29T09:26:08.234Z,87.60
2017-12-29T09:27:12.994Z,86.80
2017-12-29T09:28:18.018Z,86.30
2017-12-29T09:29:22.747Z,86.30
2017-12-29T09:30:28.239Z,86.30
2017-12-29T09:31:32.978Z,86.30
2017-12-29T09:32:37.714Z,85.90
2017-12-29T09:33:43.202Z,85.70
2017-12-29T09:34:48.391Z,85.60
2017-12-29T09:35:53.210Z,85.40
2017-12-29T09:36:58.725Z,85.10
2017-12-29T09:38:03.472Z,85.00
2017-12-29T09:39:08.979Z,84.00
2017-12-29T09:40:27.185Z,84.00
2017-12-29T09:41:32.400Z,83.80
2017-12-29T09:42:37.273Z,84.00
2017-12-29T09:43:43.045Z,83.70
2017-12-29T09:44:47.791Z,83.70
2017-12-29T09:45:52.540Z,83.60
2017-12-29T09:46:57.773Z,82.90
2017-12-29T09:48:02.539Z,82.70
2017-12-29T09:49:07.251Z,82.50
2017-12-29T09:50:11.954Z,81.60
2017-12-29T09:51:16.679Z,81.90
2017-12-29T09:52:21.469Z,81.90
2017-12-29T09:53:27.447Z,81.20
2017-12-29T09:54:32.220Z,81.20
2017-12-29T09:55:36.988Z,80.90
2017-12-29T09:56:41.709Z,80.70
2017-12-29T09:57:46.483Z,81.20
2017-12-29T09:58:51.944Z,81.20
2017-12-29T09:59:57.166Z,81.20
2017-12-29T10:01:01.886Z,80.80
2017-12-29T10:02:06.607Z,80.60
2017-12-29T10:03:11.358Z,80.30
2017-12-29T10:04:16.114Z,80.20
2017-12-29T10:05:21.609Z,80.20
2017-12-29T10:06:26.606Z,80.20
2017-12-29T10:07:31.333Z,79.40
2017-12-29T10:08:36.057Z,78.50
2017-12-29T10:09:40.805Z,78.40
2017-12-29T10:10:45.552Z,78.60
2017-12-29T10:11:50.283Z,78.50
2017-12-29T10:12:55.396Z,78.20
2017-12-29T10:14:00.908Z,77.40
2017-12-29T10:15:06.413Z,75.70
2017-12-29T10:16:11.206Z,75.70
2017-12-29T10:17:15.964Z,75.80
2017-12-29T10:18:20.682Z,76.50
2017-12-29T10:19:25.685Z,76.60
2017-12-29T10:20:31.223Z,75.70
2017-12-29T10:21:35.950Z,76.20
2017-12-29T10:22:40.633Z,76.30
2017-12-29T10:23:45.357Z,76.00
2017-12-29T10:24:50.723Z,75.10
2017-12-29T10:25:55.816Z,75.30
2017-12-29T10:27:00.484Z,75.20
2017-12-29T10:28:05.228Z,75.50
2017-12-29T10:29:09.961Z,74.40
2017-12-29T10:30:14.690Z,74.50
2017-12-29T10:31:19.490Z,75.00
2017-12-29T10:32:24.628Z,75.90
2017-12-29T10:33:29.335Z,76.50
2017-12-29T10:34:34.050Z,76.60
2017-12-29T10:35:38.761Z,76.30
2017-12-29T10:36:43.469Z,76.20
2017-12-29T10:37:48.147Z,75.80
2017-12-29T10:38:53.996Z,75.50
2017-12-29T10:39:58.702Z,76.40
2017-12-29T10:41:03.423Z,76.50
2017-12-29T10:42:08.158Z,76.10
2017-12-29T10:43:12.908Z,76.10
2017-12-29T10:44:17.669Z,76.70
2017-12-29T10:45:22.793Z,76.80
2017-12-29T10:46:27.503Z,76.60
2017-12-29T10:47:32.226Z,76.90
2017-12-29T10:48:45.237Z,77.70
2017-12-29T10:49:50.164Z,78.00
2017-12-29T10:50:54.902Z,77.90
2017-12-29T10:52:00.757Z,78.80
2017-12-29T10:53:06.258Z,77.60
2017-12-29T10:54:10.977Z,77.60
2017-12-29T10:55:15.688Z,77.60
2017-12-29T10:56:20.394Z,78.20
2017-12-29T10:57:26.944Z,78.80
2017-12-29T10:58:35.962Z,78.80
2017-12-29T10:59:40.739Z,78.90
2017-12-29T11:00:45.512Z,78.70
2017-12-29T11:01:50.207Z,78.90
2017-12-29T11:02:54.893Z,78.70
2017-12-29T11:04:00.464Z,78.70
2017-12-29T11:05:05.573Z,78.70
2017-12-29T11:06:10.316Z,78.60
2017-12-29T11:07:15.057Z,78.20
2017-12-29T11:08:19.869Z,78.40
2017-12-29T11:09:24.639Z,78.80
2017-12-29T11:10:29.376Z,79.00
2017-12-29T11:11:34.463Z,78.20
2017-12-29T11:12:40.025Z,78.00
2017-12-29T11:13:44.759Z,78.00
2017-12-29T11:14:49.508Z,78.10
2017-12-29T11:15:54.270Z,78.80
2017-12-29T11:16:58.993Z,78.50
2017-12-29T11:18:05.021Z,78.10
2017-12-29T11:19:09.767Z,78.50
2017-12-29T11:20:14.464Z,77.90
2017-12-29T11:21:19.225Z,77.70
2017-12-29T11:22:23.941Z,78.70
2017-12-29T11:23:28.630Z,78.40
2017-12-29T11:24:33.718Z,78.80
2017-12-29T11:25:39.272Z,79.50
2017-12-29T11:26:44.017Z,79.40
2017-12-29T11:27:48.718Z,79.00
2017-12-29T11:28:53.506Z,78.90
2017-12-29T11:29:58.982Z,78.50
2017-12-29T11:31:04.078Z,78.50
2017-12-29T11:32:09.552Z,78.30
2017-12-29T11:33:14.249Z,78.30
2017-12-29T11:34:18.983Z,78.60
2017-12-29T11:35:23.795Z,78.70
2017-12-29T11:36:28.516Z,78.80
2017-12-29T11:37:33.623Z,78.90
2017-12-29T11:38:38.345Z,79.00
2017-12-29T11:39:43.061Z,79.00
2017-12-29T11:40:47.769Z,78.50
2017-12-29T11:41:52.474Z,78.90
2017-12-29T11:42:58.686Z,79.40
2017-12-29T11:44:03.745Z,79.10
2017-12-29T11:45:09.228Z,79.30
2017-12-29T11:46:14.003Z,79.20
2017-12-29T11:47:18.788Z,79.80
2017-12-29T11:48:23.487Z,79.10
2017-12-29T11:49:28.243Z,79.40
2017-12-29T11:50:34.402Z,79.30
2017-12-29T11:51:40.243Z,79.20
2017-12-29T11:52:46.002Z,79.30
2017-12-29T11:53:50.714Z,79.30
2017-12-29T11:54:55.484Z,79.80
2017-12-29T11:56:00.202Z,79.90
2017-12-29T11:57:05.261Z,79.60
2017-12-29T11:58:10.763Z,79.70
2017-12-29T11:59:16.507Z,84.00
2017-12-29T12:00:21.369Z,84.00
2017-12-29T12:01:26.077Z,83.90
2017-12-29T12:02:30.849Z,81.10
2017-12-29T12:03:36.023Z,82.20
2017-12-29T12:04:41.529Z,82.30
2017-12-29T12:05:47.082Z,82.00
2017-12-29T12:06:52.645Z,80.50
2017-12-29T12:07:57.409Z,80.50
2017-12-29T12:09:02.120Z,79.80
2017-12-29T12:10:07.198Z,79.20
2017-12-29T12:11:11.926Z,80.40
2017-12-29T12:12:16.755Z,79.40
2017-12-29T12:13:21.474Z,79.30
2017-12-29T12:14:26.290Z,78.40
2017-12-29T12:15:31.065Z,79.00
2017-12-29T12:16:36.299Z,78.00
2017-12-29T12:17:41.883Z,78.80
2017-12-29T12:18:46.692Z,78.80
2017-12-29T12:19:51.471Z,79.00
2017-12-29T12:20:56.949Z,80.00
2017-12-29T12:22:01.689Z,80.00
2017-12-29T12:23:06.852Z,80.10
2017-12-29T12:24:12.398Z,80.40
2017-12-29T12:25:17.487Z,80.40
2017-12-29T12:26:23.025Z,80.20
2017-12-29T12:27:27.758Z,80.20
2017-12-29T12:28:33.309Z,80.90
2017-12-29T12:29:39.288Z,80.80
2017-12-29T12:30:44.054Z,81.40
2017-12-29T12:31:49.595Z,80.20
2017-12-29T12:32:55.131Z,80.00
2017-12-29T12:34:00.688Z,79.90
2017-12-29T12:35:05.441Z,79.90
2017-12-29T12:36:10.621Z,80.60
2017-12-29T12:37:16.102Z,81.00
2017-12-29T12:38:20.775Z,81.00
2017-12-29T12:39:26.311Z,81.10
2017-12-29T12:40:31.794Z,80.70
2017-12-29T12:41:36.545Z,80.70
2017-12-29T12:42:41.792Z,80.70
2017-12-29T12:43:47.258Z,81.10
2017-12-29T12:44:51.993Z,81.10
2017-12-29T12:45:56.773Z,81.40
2017-12-29T12:47:01.675Z,81.50
2017-12-29T12:48:06.522Z,81.90
2017-12-29T12:49:11.714Z,82.50
2017-12-29T12:50:16.422Z,82.50
2017-12-29T12:51:21.310Z,82.30
2017-12-29T12:52:26.354Z,83.40
2017-12-29T12:53:31.100Z,84.50
2017-12-29T12:54:36.601Z,86.90
2017-12-29T12:55:41.797Z,86.80
2017-12-29T12:56:46.578Z,87.10
2017-12-29T12:57:52.042Z,87.60
2017-12-29T12:58:56.799Z,87.60
2017-12-29T13:00:01.544Z,88.30
2017-12-29T13:01:07.078Z,88.40
2017-12-29T13:02:13.141Z,87.30
2017-12-29T13:03:18.641Z,87.40
2017-12-29T13:04:23.441Z,87.30
2017-12-29T13:05:28.194Z,88.10
2017-12-29T13:06:33.776Z,88.70
2017-12-29T13:07:38.762Z,88.70
2017-12-29T13:08:44.727Z,88.00
2017-12-29T13:09:49.818Z,87.90
2017-12-29T13:10:54.693Z,88.60
2017-12-29T13:11:59.451Z,89.00
2017-12-29T13:13:04.753Z,88.20
2017-12-29T13:14:09.690Z,88.90
2017-12-29T13:15:14.893Z,89.60
2017-12-29T13:16:19.758Z,89.20
2017-12-29T13:17:24.630Z,90.00
2017-12-29T13:18:29.726Z,89.50
2017-12-29T13:19:35.339Z,90.90
2017-12-29T13:20:40.277Z,90.90
2017-12-29T13:21:48.778Z,90.40
2017-12-29T13:22:54.714Z,90.80
2017-12-29T13:24:00.350Z,91.10
2017-12-29T13:25:05.164Z,91.10
2017-12-29T13:26:10.093Z,91.20
2017-12-29T13:27:15.809Z,91.30
2017-12-29T13:28:21.880Z,91.30
2017-12-29T13:29:29.154Z,91.50
2017-12-29T13:30:34.008Z,91.20
2017-12-29T13:31:38.893Z,91.30
2017-12-29T13:32:43.760Z,91.20
2017-12-29T13:33:48.545Z,91.20
2017-12-29T13:34:54.422Z,91.60
2017-12-29T13:35:59.202Z,91.60
2017-12-29T13:37:04.884Z,91.70
2017-12-29T13:38:09.918Z,91.70
2017-12-29T13:39:15.466Z,91.50
2017-12-29T13:40:20.310Z,91.70
2017-12-29T13:41:25.444Z,91.80
2017-12-29T13:42:30.319Z,91.80
2017-12-29T13:43:35.185Z,92.00
2017-12-29T13:44:40.723Z,91.70
2017-12-29T13:45:46.703Z,91.70
2017-12-29T13:46:52.007Z,92.20
2017-12-29T13:47:57.488Z,92.20
2017-12-29T13:49:02.369Z,92.10
2017-12-29T13:50:08.218Z,92.10
2017-12-29T13:51:14.005Z,92.00
2017-12-29T13:52:19.239Z,91.90
2017-12-29T13:53:24.456Z,91.80
2017-12-29T13:55:59.191Z,91.90
2017-12-29T13:57:05.399Z,92.10
2017-12-29T13:58:11.575Z,92.30
2017-12-29T13:59:16.767Z,91.80
2017-12-29T14:00:22.708Z,92.40
2017-12-29T14:01:28.127Z,92.40
2017-12-29T14:02:34.083Z,92.40
2017-12-29T14:03:40.023Z,92.40
2017-12-29T14:04:45.229Z,92.40
2017-12-29T14:05:50.302Z,92.60
2017-12-29T14:06:55.547Z,92.60
2017-12-29T14:08:01.205Z,92.70
2017-12-29T14:09:06.988Z,92.80
2017-12-29T14:10:12.965Z,92.90
2017-12-29T14:11:18.128Z,92.90
2017-12-29T14:12:23.384Z,93.10
2017-12-29T14:13:28.606Z,93.10
2017-12-29T14:14:34.115Z,93.50
2017-12-29T14:15:39.332Z,93.80
2017-12-29T14:16:44.489Z,93.90
2017-12-29T14:17:49.363Z,94.10
2017-12-29T14:18:54.562Z,94.30
2017-12-29T14:20:00.534Z,94.50
2017-12-29T14:21:06.062Z,94.50
2017-12-29T14:22:12.036Z,94.50
2017-12-29T14:23:18.780Z,94.50
2017-12-29T14:24:23.945Z,94.60
2017-12-29T14:25:29.168Z,95.00
2017-12-29T14:26:34.348Z,95.00
2017-12-29T14:27:40.659Z,95.40
2017-12-29T14:28:45.854Z,95.40
2017-12-29T14:29:50.984Z,95.40
2017-12-29T14:30:56.143Z,95.60
2017-12-29T14:32:02.235Z,95.70
2017-12-29T14:33:08.223Z,95.90
2017-12-29T14:34:13.903Z,95.90
2017-12-29T14:35:19.771Z,96.00
2017-12-29T14:36:25.377Z,96.00
2017-12-29T14:37:30.486Z,95.90
2017-12-29T14:38:35.663Z,95.90
2017-12-29T14:39:40.938Z,95.80
2017-12-29T14:40:46.587Z,95.90
2017-12-29T14:41:51.651Z,95.90
2017-12-29T14:43:18.190Z,95.90
2017-12-29T14:44:24.526Z,95.70
2017-12-29T14:45:31.038Z,95.80
2017-12-29T14:46:36.850Z,95.80
2017-12-29T14:47:42.682Z,95.90
2017-12-29T14:48:48.015Z,95.80
2017-12-29T14:49:53.378Z,95.70
2017-12-29T14:50:58.752Z,95.70
2017-12-29T14:55:11.130Z,95.60
2017-12-29T14:56:16.903Z,95.70